Addyston, OH

6:05 PM EDT on April 01, 2015 (GMT -0400)
Miami Township | | Change Station
CLOSE
Current Station
Personal Weather Station
Location: Cincinnati, OH
Elevation: 817 ft
Nearby Weather Stations

Elev 817 ft 39.14 °N, 84.70 °W | Updated 5 seconds ago

Clear
Clear
65.5 °F
Feels Like 65.5 °F
N
2.0
Wind Variable Wind from SE
Gusts 2.0 mph

Today
High -- | Low -- °F
--% Chance of Precip.
Yesterday
High -- | Low -- °F
Precip. -- in
7:23 AM 8:02 PM
Waxing Gibbous, 94% visible
Pressure 30.07 in
Visibility 10.0 miles
Clouds Few 25000 ft
Scattered Clouds 30000 ft
Dew Point 37 °F
Humidity 35%
Rainfall 0.00 in
Snow Depth Not available.
UV 0.9 out of 12
Pollen 9.80 out of 12
Air Quality Not available.
Flu Activity Not available.
METAR KCVG 012152Z 15007KT 10SM FEW250 SCT300 19/M01 A3007 RMK AO2 SLP182 T01891006

More Conditions Fewer Conditions

Pressure 30.07 in
Visibility 10.0 miles
Clouds Few 25000 ft
Scattered Clouds 30000 ft
Dew Point 37 °F
Humidity 35%
Rainfall 0.00 in
Snow Depth Not available.
UV 0.9 out of 12
Pollen 9.80 out of 12
Air Quality Not available.
Flu Activity Not available.
METAR KCVG 012152Z 15007KT 10SM FEW250 SCT300 19/M01 A3007 RMK AO2 SLP182 T01891006

More Conditions Fewer Conditions

10-Day Weather Forecast

Almanac

Astronomy

Apr. 01, 2015 Rise Set
Actual Time
Civil Twilight
Nautical Twilight
Astronomical Twilight
Moon
Length of Visible Light
Length of Day
Tomorrow will be .
, % of the Moon is Illuminated

Today's Extremes

State Highs State Lows

Community

WunderPhotos

Upload Photos

1,810,093 photos uploaded!

WunderBlogs® & News

Nearby

Air Quality

  Air Quality AQ Index Pollutant
Not available.

Snow Depth

Station Depth Elevation

Earthquake Activity

City Distance Mag. Time & Date
Minimum magnitude displayed is 2.5.

Coastal Water Temperatures

Place Temperature

Stations

Nearby Weather Stations

Station Location Temp. Windchill Dew Point Humidity Wind Precip. Elev Updated Type